This is the latest recevied weather packets stored in our database for station/object kj4yre. If no packets are shown the sender has not sent any weather packets the latest 10 day(s).
| Time | Temp. | Humidity | Pressure | Rain* | Wind** | Luminosity | Snow |
|---|---|---|---|---|---|---|---|
| 1777944436 | 18.89° C | 56% | 1013.6 hPa | 0 mm | - | - | - |
| 1777943836 | 18.89° C | 55% | 1013.5 hPa | 0 mm | - | - | - |
| 1777943537 | 18.89° C | 57% | 1013.5 hPa | 0 mm | - | - | - |
| 1777942937 | 18.89° C | 57% | 1013.5 hPa | 0 mm | - | - | - |
| 1777941435 | 18.89° C | 57% | 1013.4 hPa | 0 mm | - | - | - |
| 1777939336 | 20.56° C | 52% | 1012.9 hPa | 0 mm | - | - | - |
| 1777939035 | 21.11° C | 51% | 1012.9 hPa | 0 mm | - | - | - |
| 1777931535 | 26.67° C | 29% | 1012.4 hPa | 0 mm | - | - | - |
| 1777930937 | 26.11° C | 30% | 1012.4 hPa | 0 mm | - | - | - |
| 1777929137 | 27.22° C | 31% | 1012.4 hPa | 0 mm | - | - | - |
| 1777927636 | 27.78° C | 32% | 1012.6 hPa | 0 mm | - | - | - |
| 1777926737 | 27.78° C | 31% | 1012.6 hPa | 0 mm | - | - | - |
| 1777925236 | 27.78° C | 29% | 1012.9 hPa | 0 mm | - | - | - |
| 1777924036 | 26.67° C | 28% | 1013.3 hPa | 0 mm | - | - | - |
| 1777922836 | 24.44° C | 30% | 1013.7 hPa | 0 mm | - | - | - |
| 1777922537 | 25° C | 28% | 1013.7 hPa | 0 mm | - | - | - |
| 1777922236 | 25° C | 28% | 1013.7 hPa | 0 mm | - | - | - |
| 1777921336 | 25° C | 32% | 1013.8 hPa | 0 mm | - | - | - |
| 1777920435 | 23.89° C | 34% | 1014 hPa | 0 mm | - | - | - |
| 1777920134 | 24.44° C | 33% | 1014.1 hPa | 0 mm | - | - | - |
| 1777918637 | 24.44° C | 31% | 1014.5 hPa | 0 mm | - | - | - |
| 1777917136 | 23.89° C | 34% | 1014.7 hPa | 0 mm | - | - | - |
| 1777914437 | 23.89° C | 34% | 1015.2 hPa | 0 mm | - | - | - |
| 1777914136 | 23.33° C | 32% | 1015.2 hPa | 0 mm | - | - | - |
| 1777913235 | 23.33° C | 33% | 1015.4 hPa | 0 mm | - | - | - |
* Rain latest hour (hover to see other rain measurements)
** Current wind speed in m/s (hover to see current wind gust speed)